Terminal Aerodrome Forecast
Issued by NWS

Home | Current Version | Previous Version | Text Only | Print | Product List | Glossary Off
Versions: 1 2 3 4 5 6 7 8 9 10 11 12 13 14 15 16 17 18 19 20

000
FTUS43 KMPX 241700
TAFAXN
TAF
KAXN 241720Z 2418/2518 16013G21KT P6SM SCT100 BKN200
     FM242100 15011KT P6SM VCSH SCT050 BKN090
     FM250500 14010KT P6SM BKN060
     FM251300 15007KT P6SM SCT020 BKN040=

USA.gov is the U.S. government's official web portal to all federal, state and local government web resources and services.